Date,TemperatureHighF,TemperatureAvgF,TemperatureLowF,DewpointHighF,DewpointAvgF,DewpointLowF,HumidityHigh,HumidityAvg,HumidityLow,PressureMaxIn,PressureMinIn,WindSpeedMaxMPH,WindSpeedAvgMPH,GustSpeedMaxMPH,PrecipitationSumIn
2013-1-1,36,24,1,32,16,0,98,75,49,29.02,28.78,16,4,18,0.00
2013-1-2,27,9,-4,21,6,-6,98,88,63,29.25,28.97,13,2,16,0.00
2013-1-3,17,7,-6,6,2,-7,98,84,49,29.26,29.04,6,1,6,0.00
2013-1-4,9,6,3,9,6,3,98,98,98,29.04,29.02,2,0,2,0.00
2013-1-5,40,24,14,37,18,14,98,83,47,29.32,29.04,9,2,11,0.01
2013-1-6,41,27,14,34,26,0,98,95,50,29.27,29.00,9,1,14,0.02
2013-1-7,34,24,7,31,20,6,98,86,52,29.48,29.03,14,2,14,0.00
2013-1-8,39,17,3,32,16,3,98,96,66,29.46,29.33,6,1,7,0.00
2013-1-9,19,17,14,18,16,13,98,98,98,29.47,29.45,4,1,4,0.00
2013-1-10,44,30,22,100,28,22,98,86,55,29.64,29.46,12,2,12,0.00
2013-1-11,37,28,18,33,26,18,98,94,69,29.63,29.27,9,2,11,0.07
2013-1-12,42,34,32,41,33,32,98,98,98,29.29,29.21,4,0,5,0.02
2013-1-14,34,33,33,33,33,32,98,98,98,29.28,28.95,5,1,5,0.03
2013-1-15,32,32,32,100,100,100,0,0,100,29.02,29.02,0,0,2,0.00
2013-1-31,27,23,25,17,2,-100,67,56,59,29.45,29.42,12,-106,0,0.00
2013-2-1,29,22,16,18,12,6,87,64,54,29.97,29.45,15,5,0,0.01
2013-2-2,26,17,5,18,10,4,98,74,55,30.09,29.89,8,2,0,0.00
2013-2-3,29,20,9,19,15,8,98,82,58,29.93,29.63,4,1,0,0.00
2013-2-4,28,18,9,17,10,6,98,74,46,29.80,29.61,10,3,0,0.00
2013-2-5,31,16,2,20,11,1,98,82,50,29.90,29.79,10,2,0,0.00
2013-2-6,36,26,17,28,18,3,98,75,45,30.21,29.78,13,3,0,0.00
2013-2-7,27,18,6,8,5,0,85,58,40,30.42,30.21,7,2,0,0.00
2013-2-8,22,20,17,21,16,4,98,86,47,30.34,29.70,10,3,0,0.00
2013-2-9,22,15,6,18,11,1,98,85,62,30.17,29.69,17,5,0,0.00
2013-2-10,36,12,-8,22,6,-9,98,82,32,30.35,30.17,4,1,0,0.17
2013-2-11,34,23,7,34,23,6,98,98,98,30.22,29.53,6,1,0,0.00
2013-2-12,40,35,31,37,33,31,98,94,80,29.78,29.53,11,3,0,0.28
2013-2-13,38,30,22,31,26,21,98,88,63,29.76,29.64,6,1,0,0.06
2013-2-14,43,27,15,30,23,14,98,88,54,29.87,29.62,6,1,0,0.05
2013-2-15,50,30,17,37,26,17,98,89,55,29.87,29.79,10,2,0,0.01
2013-2-16,35,29,22,32,22,8,98,77,53,29.88,29.71,12,2,0,0.00
2013-2-17,21,17,15,8,6,5,69,60,55,29.71,29.44,13,8,0,0.02
2013-2-18,17,17,17,6,6,6,59,59,59,29.45,29.45,11,11,0,0.00
2013-2-19,35,22,17,34,13,6,98,70,59,29.60,29.45,11,8,0,0.09
2013-2-20,33,27,21,33,24,19,98,91,70,29.67,29.46,19,4,0,0.01
2013-2-21,28,22,16,23,16,11,98,78,54,30.19,29.67,14,5,0,0.00
2013-2-22,38,28,17,30,24,16,98,86,57,30.31,30.18,7,2,0,0.00
2013-2-23,33,31,29,33,31,27,98,98,86,30.18,29.84,6,2,0,0.00
2013-2-24,40,33,30,40,33,29,98,98,98,29.83,29.66,4,0,0,0.28
2013-2-25,40,32,25,39,31,24,98,98,98,30.14,29.83,2,0,0,0.35
2013-2-26,41,32,23,40,32,22,98,98,98,30.24,30.06,7,1,0,0.19
2013-2-27,36,33,31,35,32,31,98,98,98,30.06,29.55,5,1,0,0.24
2013-2-28,49,35,27,49,35,26,98,98,98,29.55,29.45,4,1,0,1.46
2013-3-1,40,34,29,38,33,28,98,97,88,29.63,29.47,8,3,0,0.24
2013-3-2,37,32,27,36,31,26,98,98,95,29.62,29.57,10,4,0,0.00
2013-3-3,36,29,24,33,28,5,98,96,36,29.59,29.52,7,3,0,0.01
2013-3-4,38,30,23,30,27,22,98,90,70,29.73,29.55,11,4,0,0.01
2013-3-5,29,28,26,29,27,26,98,98,98,29.99,29.74,9,2,0,0.00
2013-3-6,38,33,29,37,32,29,98,98,93,30.07,29.96,9,3,0,0.04
2013-3-7,37,32,30,37,31,29,98,96,81,30.06,29.99,11,4,0,0.00
2013-3-8,38,31,24,37,30,23,98,98,92,30.16,29.94,10,4,0,0.11
2013-3-9,56,32,14,36,25,14,98,81,26,30.26,30.14,9,2,0,0.11
2013-3-10,53,34,18,40,29,17,98,84,47,30.30,30.14,10,2,0,0.00
2013-3-11,44,37,32,44,36,32,98,97,88,30.17,30.00,11,3,0,0.00
2013-3-12,52,43,35,52,42,34,98,98,98,29.99,29.60,8,2,0,1.30
2013-3-13,50,39,26,50,36,23,98,90,40,29.72,29.65,8,2,0,0.00
2013-3-14,33,25,17,30,21,12,98,86,66,29.76,29.64,12,4,0,0.01
2013-3-15,33,30,28,33,29,28,98,98,98,29.61,29.51,7,3,0,0.00
2013-3-16,35,27,17,27,20,17,98,77,48,29.79,29.61,10,3,0,0.01
2013-3-17,20,20,20,20,20,19,98,98,98,29.80,29.79,0,0,0,0.00